sensor_id;sensor_type;location;lat;lon;timestamp;P1;durP1;ratioP1;P2;durP2;ratioP2
20417;SDS011;10368;51.436;6.774;2023-04-16T00:02:15;18.80;;;12.07;;
20417;SDS011;10368;51.436;6.774;2023-04-16T00:04:42;21.47;;;13.30;;
20417;SDS011;10368;51.436;6.774;2023-04-16T00:07:10;22.80;;;13.97;;
20417;SDS011;10368;51.436;6.774;2023-04-16T00:09:37;24.90;;;13.90;;
20417;SDS011;10368;51.436;6.774;2023-04-16T00:12:04;24.17;;;14.17;;
20417;SDS011;10368;51.436;6.774;2023-04-16T00:14:32;17.33;;;12.83;;
20417;SDS011;10368;51.436;6.774;2023-04-16T00:16:59;20.27;;;14.17;;
20417;SDS011;10368;51.436;6.774;2023-04-16T00:19:26;23.63;;;14.37;;
20417;SDS011;10368;51.436;6.774;2023-04-16T00:21:54;19.53;;;14.13;;
20417;SDS011;10368;51.436;6.774;2023-04-16T00:24:21;20.73;;;12.07;;
20417;SDS011;10368;51.436;6.774;2023-04-16T00:26:48;21.10;;;13.43;;
20417;SDS011;10368;51.436;6.774;2023-04-16T00:29:15;27.00;;;14.07;;
20417;SDS011;10368;51.436;6.774;2023-04-16T00:31:43;24.83;;;13.77;;
20417;SDS011;10368;51.436;6.774;2023-04-16T00:34:10;20.67;;;14.80;;
20417;SDS011;10368;51.436;6.774;2023-04-16T00:36:38;20.70;;;15.17;;
20417;SDS011;10368;51.436;6.774;2023-04-16T00:39:05;26.47;;;14.73;;
20417;SDS011;10368;51.436;6.774;2023-04-16T00:41:36;39.83;;;20.27;;
20417;SDS011;10368;51.436;6.774;2023-04-16T00:44:04;28.63;;;17.40;;
20417;SDS011;10368;51.436;6.774;2023-04-16T00:46:31;29.13;;;19.10;;
20417;SDS011;10368;51.436;6.774;2023-04-16T00:49:00;32.33;;;18.10;;
20417;SDS011;10368;51.436;6.774;2023-04-16T00:51:28;29.43;;;16.80;;
20417;SDS011;10368;51.436;6.774;2023-04-16T00:53:56;35.60;;;19.13;;
20417;SDS011;10368;51.436;6.774;2023-04-16T00:56:23;28.70;;;19.40;;
20417;SDS011;10368;51.436;6.774;2023-04-16T00:58:51;38.97;;;22.67;;
20417;SDS011;10368;51.436;6.774;2023-04-16T01:01:20;53.30;;;22.33;;
20417;SDS011;10368;51.436;6.774;2023-04-16T01:03:48;41.23;;;23.60;;
20417;SDS011;10368;51.436;6.774;2023-04-16T01:06:16;42.03;;;23.07;;
20417;SDS011;10368;51.436;6.774;2023-04-16T01:08:43;36.97;;;20.73;;
20417;SDS011;10368;51.436;6.774;2023-04-16T01:11:10;40.77;;;21.00;;
20417;SDS011;10368;51.436;6.774;2023-04-16T01:13:38;36.97;;;19.47;;
20417;SDS011;10368;51.436;6.774;2023-04-16T01:16:05;35.70;;;18.97;;
20417;SDS011;10368;51.436;6.774;2023-04-16T01:18:34;32.10;;;17.73;;
20417;SDS011;10368;51.436;6.774;2023-04-16T01:21:01;37.43;;;18.40;;
20417;SDS011;10368;51.436;6.774;2023-04-16T01:23:29;37.50;;;19.47;;
20417;SDS011;10368;51.436;6.774;2023-04-16T01:25:56;34.50;;;18.87;;
20417;SDS011;10368;51.436;6.774;2023-04-16T01:28:24;30.70;;;18.43;;
20417;SDS011;10368;51.436;6.774;2023-04-16T01:30:51;26.27;;;19.00;;
20417;SDS011;10368;51.436;6.774;2023-04-16T01:33:19;34.53;;;19.80;;
20417;SDS011;10368;51.436;6.774;2023-04-16T01:35:47;37.80;;;19.80;;
20417;SDS011;10368;51.436;6.774;2023-04-16T01:38:14;38.20;;;19.90;;
20417;SDS011;10368;51.436;6.774;2023-04-16T01:40:41;45.13;;;20.60;;
20417;SDS011;10368;51.436;6.774;2023-04-16T01:43:09;37.67;;;19.60;;
20417;SDS011;10368;51.436;6.774;2023-04-16T01:45:36;29.63;;;18.10;;
20417;SDS011;10368;51.436;6.774;2023-04-16T01:48:03;42.17;;;21.10;;
20417;SDS011;10368;51.436;6.774;2023-04-16T01:50:31;35.70;;;19.20;;
20417;SDS011;10368;51.436;6.774;2023-04-16T01:52:58;37.20;;;19.77;;
20417;SDS011;10368;51.436;6.774;2023-04-16T01:55:27;32.00;;;18.43;;
20417;SDS011;10368;51.436;6.774;2023-04-16T01:57:54;49.23;;;22.03;;
20417;SDS011;10368;51.436;6.774;2023-04-16T02:00:21;35.43;;;20.37;;
20417;SDS011;10368;51.436;6.774;2023-04-16T02:02:48;42.57;;;21.93;;
20417;SDS011;10368;51.436;6.774;2023-04-16T02:05:16;47.67;;;21.37;;
20417;SDS011;10368;51.436;6.774;2023-04-16T02:07:43;33.47;;;20.53;;
20417;SDS011;10368;51.436;6.774;2023-04-16T02:10:11;45.60;;;21.27;;
20417;SDS011;10368;51.436;6.774;2023-04-16T02:12:38;47.13;;;23.70;;
20417;SDS011;10368;51.436;6.774;2023-04-16T02:15:05;47.17;;;23.23;;
20417;SDS011;10368;51.436;6.774;2023-04-16T02:17:33;47.47;;;23.70;;
20417;SDS011;10368;51.436;6.774;2023-04-16T02:20:00;44.10;;;22.27;;
20417;SDS011;10368;51.436;6.774;2023-04-16T02:22:30;49.37;;;25.10;;
20417;SDS011;10368;51.436;6.774;2023-04-16T02:24:57;59.83;;;27.00;;
20417;SDS011;10368;51.436;6.774;2023-04-16T02:27:25;51.57;;;28.37;;
20417;SDS011;10368;51.436;6.774;2023-04-16T02:29:52;70.63;;;28.00;;
20417;SDS011;10368;51.436;6.774;2023-04-16T02:32:19;54.37;;;25.80;;
20417;SDS011;10368;51.436;6.774;2023-04-16T02:34:47;52.83;;;25.00;;
20417;SDS011;10368;51.436;6.774;2023-04-16T02:37:14;63.53;;;26.17;;
20417;SDS011;10368;51.436;6.774;2023-04-16T02:39:41;55.87;;;25.97;;
20417;SDS011;10368;51.436;6.774;2023-04-16T02:42:09;53.40;;;24.67;;
20417;SDS011;10368;51.436;6.774;2023-04-16T02:44:36;59.97;;;24.47;;
20417;SDS011;10368;51.436;6.774;2023-04-16T02:47:03;46.50;;;24.37;;
20417;SDS011;10368;51.436;6.774;2023-04-16T02:49:30;54.87;;;25.53;;
20417;SDS011;10368;51.436;6.774;2023-04-16T02:51:58;58.57;;;28.20;;
20417;SDS011;10368;51.436;6.774;2023-04-16T02:54:25;60.57;;;28.37;;
20417;SDS011;10368;51.436;6.774;2023-04-16T02:56:52;68.63;;;30.00;;
20417;SDS011;10368;51.436;6.774;2023-04-16T02:59:19;59.27;;;28.87;;
20417;SDS011;10368;51.436;6.774;2023-04-16T03:01:46;65.00;;;30.90;;
20417;SDS011;10368;51.436;6.774;2023-04-16T03:04:14;64.40;;;29.33;;
20417;SDS011;10368;51.436;6.774;2023-04-16T03:06:41;68.10;;;28.60;;
20417;SDS011;10368;51.436;6.774;2023-04-16T03:09:08;47.27;;;24.60;;
20417;SDS011;10368;51.436;6.774;2023-04-16T03:11:36;49.10;;;26.50;;
20417;SDS011;10368;51.436;6.774;2023-04-16T03:14:03;54.00;;;27.90;;
20417;SDS011;10368;51.436;6.774;2023-04-16T03:16:31;53.43;;;27.37;;
20417;SDS011;10368;51.436;6.774;2023-04-16T03:18:59;58.80;;;27.63;;
20417;SDS011;10368;51.436;6.774;2023-04-16T03:21:26;58.33;;;30.10;;
20417;SDS011;10368;51.436;6.774;2023-04-16T03:23:53;57.30;;;24.83;;
20417;SDS011;10368;51.436;6.774;2023-04-16T03:26:21;62.30;;;27.70;;
20417;SDS011;10368;51.436;6.774;2023-04-16T03:28:48;59.73;;;28.53;;
20417;SDS011;10368;51.436;6.774;2023-04-16T03:31:15;54.10;;;27.53;;
20417;SDS011;10368;51.436;6.774;2023-04-16T03:33:42;49.63;;;26.23;;
20417;SDS011;10368;51.436;6.774;2023-04-16T03:36:10;60.90;;;29.17;;
20417;SDS011;10368;51.436;6.774;2023-04-16T03:38:37;61.13;;;28.00;;
20417;SDS011;10368;51.436;6.774;2023-04-16T03:41:04;61.23;;;27.67;;
20417;SDS011;10368;51.436;6.774;2023-04-16T03:43:31;62.27;;;27.20;;
20417;SDS011;10368;51.436;6.774;2023-04-16T03:45:59;58.03;;;27.53;;
20417;SDS011;10368;51.436;6.774;2023-04-16T03:48:26;55.80;;;25.63;;
20417;SDS011;10368;51.436;6.774;2023-04-16T03:50:53;58.57;;;24.63;;
20417;SDS011;10368;51.436;6.774;2023-04-16T03:53:20;57.83;;;24.70;;
20417;SDS011;10368;51.436;6.774;2023-04-16T03:55:48;43.53;;;23.90;;
20417;SDS011;10368;51.436;6.774;2023-04-16T03:58:16;50.17;;;26.57;;
20417;SDS011;10368;51.436;6.774;2023-04-16T04:00:44;39.17;;;21.57;;
20417;SDS011;10368;51.436;6.774;2023-04-16T04:03:11;39.87;;;21.37;;
20417;SDS011;10368;51.436;6.774;2023-04-16T04:05:42;58.97;;;26.27;;
20417;SDS011;10368;51.436;6.774;2023-04-16T04:08:09;52.03;;;24.00;;
20417;SDS011;10368;51.436;6.774;2023-04-16T04:10:37;56.60;;;25.77;;
20417;SDS011;10368;51.436;6.774;2023-04-16T04:13:04;62.93;;;27.13;;
20417;SDS011;10368;51.436;6.774;2023-04-16T04:15:32;66.90;;;28.83;;
20417;SDS011;10368;51.436;6.774;2023-04-16T04:17:59;77.60;;;30.63;;
20417;SDS011;10368;51.436;6.774;2023-04-16T04:20:27;79.23;;;33.07;;
20417;SDS011;10368;51.436;6.774;2023-04-16T04:22:54;68.53;;;29.37;;
20417;SDS011;10368;51.436;6.774;2023-04-16T04:25:21;76.97;;;31.27;;
20417;SDS011;10368;51.436;6.774;2023-04-16T04:27:48;75.60;;;30.10;;
20417;SDS011;10368;51.436;6.774;2023-04-16T04:30:16;74.47;;;30.30;;
20417;SDS011;10368;51.436;6.774;2023-04-16T04:32:43;69.37;;;30.47;;
20417;SDS011;10368;51.436;6.774;2023-04-16T04:35:10;70.30;;;29.47;;
20417;SDS011;10368;51.436;6.774;2023-04-16T04:37:37;61.50;;;28.03;;
20417;SDS011;10368;51.436;6.774;2023-04-16T04:40:05;77.47;;;31.53;;
20417;SDS011;10368;51.436;6.774;2023-04-16T04:42:33;70.33;;;29.83;;
20417;SDS011;10368;51.436;6.774;2023-04-16T04:45:00;88.47;;;35.20;;
20417;SDS011;10368;51.436;6.774;2023-04-16T04:47:27;77.80;;;31.60;;
20417;SDS011;10368;51.436;6.774;2023-04-16T04:49:54;60.97;;;29.30;;
20417;SDS011;10368;51.436;6.774;2023-04-16T04:52:21;62.97;;;27.53;;
20417;SDS011;10368;51.436;6.774;2023-04-16T04:54:49;53.33;;;24.07;;
20417;SDS011;10368;51.436;6.774;2023-04-16T04:57:16;51.63;;;23.10;;
20417;SDS011;10368;51.436;6.774;2023-04-16T04:59:43;57.23;;;25.07;;
20417;SDS011;10368;51.436;6.774;2023-04-16T05:02:10;48.87;;;23.50;;
20417;SDS011;10368;51.436;6.774;2023-04-16T05:04:38;58.13;;;27.57;;
20417;SDS011;10368;51.436;6.774;2023-04-16T05:07:05;54.60;;;23.90;;
20417;SDS011;10368;51.436;6.774;2023-04-16T05:09:32;50.73;;;23.80;;
20417;SDS011;10368;51.436;6.774;2023-04-16T05:12:00;46.47;;;23.90;;
20417;SDS011;10368;51.436;6.774;2023-04-16T05:14:27;47.27;;;23.10;;
20417;SDS011;10368;51.436;6.774;2023-04-16T05:16:54;55.00;;;24.53;;
20417;SDS011;10368;51.436;6.774;2023-04-16T05:19:21;63.40;;;27.27;;
20417;SDS011;10368;51.436;6.774;2023-04-16T05:21:48;63.20;;;26.37;;
20417;SDS011;10368;51.436;6.774;2023-04-16T05:24:16;51.70;;;23.67;;
20417;SDS011;10368;51.436;6.774;2023-04-16T05:26:43;47.87;;;22.93;;
20417;SDS011;10368;51.436;6.774;2023-04-16T05:29:10;45.67;;;22.60;;
20417;SDS011;10368;51.436;6.774;2023-04-16T05:31:38;47.47;;;21.87;;
20417;SDS011;10368;51.436;6.774;2023-04-16T05:34:05;46.70;;;19.77;;
20417;SDS011;10368;51.436;6.774;2023-04-16T05:36:32;39.40;;;19.80;;
20417;SDS011;10368;51.436;6.774;2023-04-16T05:38:59;40.27;;;20.17;;
20417;SDS011;10368;51.436;6.774;2023-04-16T05:41:27;39.60;;;19.77;;
20417;SDS011;10368;51.436;6.774;2023-04-16T05:43:54;43.90;;;20.50;;
20417;SDS011;10368;51.436;6.774;2023-04-16T05:46:21;42.37;;;21.83;;
20417;SDS011;10368;51.436;6.774;2023-04-16T05:48:48;42.63;;;19.90;;
20417;SDS011;10368;51.436;6.774;2023-04-16T05:51:16;44.17;;;21.43;;
20417;SDS011;10368;51.436;6.774;2023-04-16T05:53:43;49.03;;;22.77;;
20417;SDS011;10368;51.436;6.774;2023-04-16T05:56:10;43.37;;;20.07;;
20417;SDS011;10368;51.436;6.774;2023-04-16T05:58:38;41.17;;;20.83;;
20417;SDS011;10368;51.436;6.774;2023-04-16T06:01:05;51.90;;;23.10;;
20417;SDS011;10368;51.436;6.774;2023-04-16T06:03:32;40.53;;;19.37;;
20417;SDS011;10368;51.436;6.774;2023-04-16T06:06:00;45.97;;;21.57;;
20417;SDS011;10368;51.436;6.774;2023-04-16T06:08:27;45.07;;;21.77;;
20417;SDS011;10368;51.436;6.774;2023-04-16T06:10:54;43.90;;;21.20;;
20417;SDS011;10368;51.436;6.774;2023-04-16T06:13:22;47.23;;;23.20;;
20417;SDS011;10368;51.436;6.774;2023-04-16T06:15:49;47.63;;;23.40;;
20417;SDS011;10368;51.436;6.774;2023-04-16T06:18:16;50.33;;;24.80;;
20417;SDS011;10368;51.436;6.774;2023-04-16T06:20:43;43.00;;;23.20;;
20417;SDS011;10368;51.436;6.774;2023-04-16T06:23:11;48.47;;;22.93;;
20417;SDS011;10368;51.436;6.774;2023-04-16T06:25:38;43.77;;;22.33;;
20417;SDS011;10368;51.436;6.774;2023-04-16T06:28:05;38.70;;;21.83;;
20417;SDS011;10368;51.436;6.774;2023-04-16T06:30:33;35.53;;;22.13;;
20417;SDS011;10368;51.436;6.774;2023-04-16T06:33:00;45.87;;;23.00;;
20417;SDS011;10368;51.436;6.774;2023-04-16T06:35:27;41.47;;;22.33;;
20417;SDS011;10368;51.436;6.774;2023-04-16T06:37:55;36.77;;;22.53;;
20417;SDS011;10368;51.436;6.774;2023-04-16T06:40:22;36.23;;;21.33;;
20417;SDS011;10368;51.436;6.774;2023-04-16T06:42:49;38.30;;;22.37;;
20417;SDS011;10368;51.436;6.774;2023-04-16T06:45:17;37.73;;;21.60;;
20417;SDS011;10368;51.436;6.774;2023-04-16T06:47:44;30.67;;;20.77;;
20417;SDS011;10368;51.436;6.774;2023-04-16T06:50:11;40.77;;;22.43;;
20417;SDS011;10368;51.436;6.774;2023-04-16T06:52:38;36.17;;;21.63;;
20417;SDS011;10368;51.436;6.774;2023-04-16T06:55:06;33.90;;;20.73;;
20417;SDS011;10368;51.436;6.774;2023-04-16T06:57:35;27.83;;;18.97;;
20417;SDS011;10368;51.436;6.774;2023-04-16T07:00:03;34.63;;;21.27;;
20417;SDS011;10368;51.436;6.774;2023-04-16T07:02:30;33.20;;;19.87;;
20417;SDS011;10368;51.436;6.774;2023-04-16T07:04:57;39.37;;;20.40;;
20417;SDS011;10368;51.436;6.774;2023-04-16T07:07:25;29.97;;;21.27;;
20417;SDS011;10368;51.436;6.774;2023-04-16T07:09:52;33.13;;;20.03;;
20417;SDS011;10368;51.436;6.774;2023-04-16T07:12:19;36.73;;;21.23;;
20417;SDS011;10368;51.436;6.774;2023-04-16T07:14:48;29.17;;;20.77;;
20417;SDS011;10368;51.436;6.774;2023-04-16T07:17:15;37.77;;;22.60;;
20417;SDS011;10368;51.436;6.774;2023-04-16T07:19:43;37.10;;;22.10;;
20417;SDS011;10368;51.436;6.774;2023-04-16T07:22:10;38.67;;;22.73;;
20417;SDS011;10368;51.436;6.774;2023-04-16T07:24:38;36.00;;;23.10;;
20417;SDS011;10368;51.436;6.774;2023-04-16T07:27:05;35.60;;;21.10;;
20417;SDS011;10368;51.436;6.774;2023-04-16T07:29:32;39.20;;;23.80;;
20417;SDS011;10368;51.436;6.774;2023-04-16T07:32:00;30.57;;;20.87;;
20417;SDS011;10368;51.436;6.774;2023-04-16T07:34:27;41.50;;;22.97;;
20417;SDS011;10368;51.436;6.774;2023-04-16T07:36:54;35.57;;;22.73;;
20417;SDS011;10368;51.436;6.774;2023-04-16T07:39:22;33.37;;;21.87;;
20417;SDS011;10368;51.436;6.774;2023-04-16T07:41:49;36.73;;;23.03;;
20417;SDS011;10368;51.436;6.774;2023-04-16T07:44:16;33.30;;;21.60;;
20417;SDS011;10368;51.436;6.774;2023-04-16T07:46:43;28.40;;;20.73;;
20417;SDS011;10368;51.436;6.774;2023-04-16T07:49:13;33.10;;;22.20;;
20417;SDS011;10368;51.436;6.774;2023-04-16T07:51:40;33.40;;;21.97;;
20417;SDS011;10368;51.436;6.774;2023-04-16T07:54:07;36.40;;;21.50;;
20417;SDS011;10368;51.436;6.774;2023-04-16T07:56:35;35.50;;;21.43;;
20417;SDS011;10368;51.436;6.774;2023-04-16T07:59:03;31.20;;;20.30;;
20417;SDS011;10368;51.436;6.774;2023-04-16T08:01:47;39.10;;;21.97;;
20417;SDS011;10368;51.436;6.774;2023-04-16T08:04:14;30.47;;;20.53;;
20417;SDS011;10368;51.436;6.774;2023-04-16T08:06:48;31.80;;;20.23;;
20417;SDS011;10368;51.436;6.774;2023-04-16T08:09:17;28.50;;;20.23;;
20417;SDS011;10368;51.436;6.774;2023-04-16T08:11:44;26.77;;;19.13;;
20417;SDS011;10368;51.436;6.774;2023-04-16T08:14:12;28.00;;;20.67;;
20417;SDS011;10368;51.436;6.774;2023-04-16T08:16:39;35.97;;;23.27;;
20417;SDS011;10368;51.436;6.774;2023-04-16T08:19:07;28.70;;;21.13;;
20417;SDS011;10368;51.436;6.774;2023-04-16T08:21:35;29.27;;;20.97;;
20417;SDS011;10368;51.436;6.774;2023-04-16T08:24:02;29.03;;;20.30;;
20417;SDS011;10368;51.436;6.774;2023-04-16T08:26:29;31.87;;;20.73;;
20417;SDS011;10368;51.436;6.774;2023-04-16T08:28:56;28.60;;;20.10;;
20417;SDS011;10368;51.436;6.774;2023-04-16T08:31:23;26.03;;;20.50;;
20417;SDS011;10368;51.436;6.774;2023-04-16T08:33:51;29.27;;;19.80;;
20417;SDS011;10368;51.436;6.774;2023-04-16T08:36:18;29.70;;;21.07;;
20417;SDS011;10368;51.436;6.774;2023-04-16T08:38:45;28.57;;;20.83;;
20417;SDS011;10368;51.436;6.774;2023-04-16T08:41:13;29.73;;;21.23;;
20417;SDS011;10368;51.436;6.774;2023-04-16T08:43:41;32.03;;;21.53;;
20417;SDS011;10368;51.436;6.774;2023-04-16T08:46:10;28.70;;;21.27;;
20417;SDS011;10368;51.436;6.774;2023-04-16T08:48:38;29.27;;;19.67;;
20417;SDS011;10368;51.436;6.774;2023-04-16T08:51:08;26.30;;;19.90;;
20417;SDS011;10368;51.436;6.774;2023-04-16T08:53:40;25.30;;;19.37;;
20417;SDS011;10368;51.436;6.774;2023-04-16T08:56:10;28.97;;;20.13;;
20417;SDS011;10368;51.436;6.774;2023-04-16T08:58:37;25.23;;;18.70;;
20417;SDS011;10368;51.436;6.774;2023-04-16T09:01:05;27.77;;;19.90;;
20417;SDS011;10368;51.436;6.774;2023-04-16T09:03:33;29.73;;;21.03;;
20417;SDS011;10368;51.436;6.774;2023-04-16T09:06:02;27.40;;;21.27;;
20417;SDS011;10368;51.436;6.774;2023-04-16T09:08:30;30.13;;;21.40;;
20417;SDS011;10368;51.436;6.774;2023-04-16T09:10:58;31.70;;;20.57;;
20417;SDS011;10368;51.436;6.774;2023-04-16T09:13:25;25.10;;;18.93;;
20417;SDS011;10368;51.436;6.774;2023-04-16T09:15:53;27.10;;;19.90;;
20417;SDS011;10368;51.436;6.774;2023-04-16T09:18:22;26.20;;;19.57;;
20417;SDS011;10368;51.436;6.774;2023-04-16T09:20:50;25.00;;;19.00;;
20417;SDS011;10368;51.436;6.774;2023-04-16T09:23:17;27.87;;;19.00;;
20417;SDS011;10368;51.436;6.774;2023-04-16T09:25:44;26.27;;;20.27;;
20417;SDS011;10368;51.436;6.774;2023-04-16T09:28:12;26.50;;;19.20;;
20417;SDS011;10368;51.436;6.774;2023-04-16T09:30:39;24.23;;;19.20;;
20417;SDS011;10368;51.436;6.774;2023-04-16T09:35:45;24.00;;;18.60;;
20417;SDS011;10368;51.436;6.774;2023-04-16T09:38:12;21.60;;;18.50;;
20417;SDS011;10368;51.436;6.774;2023-04-16T09:40:40;22.43;;;18.23;;
20417;SDS011;10368;51.436;6.774;2023-04-16T09:43:11;41.17;;;30.60;;
20417;SDS011;10368;51.436;6.774;2023-04-16T09:45:51;20.83;;;17.70;;
20417;SDS011;10368;51.436;6.774;2023-04-16T09:48:28;20.40;;;17.47;;
20417;SDS011;10368;51.436;6.774;2023-04-16T09:50:56;24.20;;;18.23;;
20417;SDS011;10368;51.436;6.774;2023-04-16T09:53:24;22.73;;;17.27;;
20417;SDS011;10368;51.436;6.774;2023-04-16T09:55:54;25.33;;;17.80;;
20417;SDS011;10368;51.436;6.774;2023-04-16T09:58:22;18.03;;;15.93;;
20417;SDS011;10368;51.436;6.774;2023-04-16T10:01:02;18.57;;;16.57;;
20417;SDS011;10368;51.436;6.774;2023-04-16T10:03:31;17.53;;;15.57;;
20417;SDS011;10368;51.436;6.774;2023-04-16T10:06:06;19.63;;;16.20;;
20417;SDS011;10368;51.436;6.774;2023-04-16T10:08:36;18.07;;;16.17;;
20417;SDS011;10368;51.436;6.774;2023-04-16T10:11:08;21.27;;;16.80;;
20417;SDS011;10368;51.436;6.774;2023-04-16T10:13:36;20.70;;;17.90;;
20417;SDS011;10368;51.436;6.774;2023-04-16T10:16:04;21.80;;;16.90;;
20417;SDS011;10368;51.436;6.774;2023-04-16T10:18:31;22.77;;;19.67;;
20417;SDS011;10368;51.436;6.774;2023-04-16T10:20:59;23.43;;;17.20;;
20417;SDS011;10368;51.436;6.774;2023-04-16T10:23:27;21.37;;;16.97;;
20417;SDS011;10368;51.436;6.774;2023-04-16T10:25:55;20.20;;;17.80;;
20417;SDS011;10368;51.436;6.774;2023-04-16T10:28:24;21.95;;;17.33;;
20417;SDS011;10368;51.436;6.774;2023-04-16T10:30:52;19.17;;;17.08;;
20417;SDS011;10368;51.436;6.774;2023-04-16T10:33:22;20.67;;;16.70;;
20417;SDS011;10368;51.436;6.774;2023-04-16T10:36:07;20.20;;;17.00;;
20417;SDS011;10368;51.436;6.774;2023-04-16T10:38:36;22.27;;;17.05;;
20417;SDS011;10368;51.436;6.774;2023-04-16T10:41:06;20.33;;;16.33;;
20417;SDS011;10368;51.436;6.774;2023-04-16T10:43:40;17.33;;;15.48;;
20417;SDS011;10368;51.436;6.774;2023-04-16T10:46:24;18.88;;;16.77;;
20417;SDS011;10368;51.436;6.774;2023-04-16T10:48:52;18.00;;;16.10;;
20417;SDS011;10368;51.436;6.774;2023-04-16T10:51:27;20.92;;;17.00;;
20417;SDS011;10368;51.436;6.774;2023-04-16T10:54:02;20.25;;;17.20;;
20417;SDS011;10368;51.436;6.774;2023-04-16T10:56:32;18.17;;;16.33;;
20417;SDS011;10368;51.436;6.774;2023-04-16T10:59:00;17.92;;;16.00;;
20417;SDS011;10368;51.436;6.774;2023-04-16T11:01:33;20.98;;;14.68;;
20417;SDS011;10368;51.436;6.774;2023-04-16T11:07:06;17.05;;;15.05;;
20417;SDS011;10368;51.436;6.774;2023-04-16T11:12:34;16.33;;;14.23;;
20417;SDS011;10368;51.436;6.774;2023-04-16T11:15:12;16.73;;;14.27;;
20417;SDS011;10368;51.436;6.774;2023-04-16T11:17:47;16.45;;;14.85;;
20417;SDS011;10368;51.436;6.774;2023-04-16T11:20:26;17.10;;;14.15;;
20417;SDS011;10368;51.436;6.774;2023-04-16T11:22:54;21.98;;;17.15;;
20417;SDS011;10368;51.436;6.774;2023-04-16T11:25:26;20.95;;;17.08;;
20417;SDS011;10368;51.436;6.774;2023-04-16T11:28:00;19.92;;;15.60;;
20417;SDS011;10368;51.436;6.774;2023-04-16T11:30:34;18.60;;;16.15;;
20417;SDS011;10368;51.436;6.774;2023-04-16T11:33:03;23.05;;;15.95;;
20417;SDS011;10368;51.436;6.774;2023-04-16T11:35:31;22.17;;;15.60;;
20417;SDS011;10368;51.436;6.774;2023-04-16T11:37:57;16.15;;;14.40;;
20417;SDS011;10368;51.436;6.774;2023-04-16T11:40:28;33.67;;;24.95;;
20417;SDS011;10368;51.436;6.774;2023-04-16T11:43:00;21.50;;;19.30;;
20417;SDS011;10368;51.436;6.774;2023-04-16T11:45:56;15.90;;;13.88;;
20417;SDS011;10368;51.436;6.774;2023-04-16T11:48:25;13.93;;;12.57;;
20417;SDS011;10368;51.436;6.774;2023-04-16T11:51:11;15.05;;;13.15;;
20417;SDS011;10368;51.436;6.774;2023-04-16T11:53:50;19.35;;;12.93;;
20417;SDS011;10368;51.436;6.774;2023-04-16T11:56:25;15.30;;;13.65;;
20417;SDS011;10368;51.436;6.774;2023-04-16T12:01:37;15.25;;;13.63;;
20417;SDS011;10368;51.436;6.774;2023-04-16T12:04:07;14.70;;;13.30;;
20417;SDS011;10368;51.436;6.774;2023-04-16T12:06:35;15.75;;;13.75;;
20417;SDS011;10368;51.436;6.774;2023-04-16T12:09:23;15.68;;;13.98;;
20417;SDS011;10368;51.436;6.774;2023-04-16T12:11:50;13.93;;;12.50;;
20417;SDS011;10368;51.436;6.774;2023-04-16T12:14:17;14.57;;;12.40;;
20417;SDS011;10368;51.436;6.774;2023-04-16T12:16:44;13.50;;;12.20;;
20417;SDS011;10368;51.436;6.774;2023-04-16T12:19:11;12.65;;;11.38;;
20417;SDS011;10368;51.436;6.774;2023-04-16T12:24:07;13.00;;;11.73;;
20417;SDS011;10368;51.436;6.774;2023-04-16T12:26:45;13.25;;;11.90;;
20417;SDS011;10368;51.436;6.774;2023-04-16T12:29:17;14.27;;;12.88;;
20417;SDS011;10368;51.436;6.774;2023-04-16T12:31:50;13.85;;;12.38;;
20417;SDS011;10368;51.436;6.774;2023-04-16T12:34:18;14.13;;;12.77;;
20417;SDS011;10368;51.436;6.774;2023-04-16T12:39:35;16.27;;;14.68;;
20417;SDS011;10368;51.436;6.774;2023-04-16T12:42:03;15.40;;;13.90;;
20417;SDS011;10368;51.436;6.774;2023-04-16T12:44:31;15.95;;;14.27;;
20417;SDS011;10368;51.436;6.774;2023-04-16T12:46:59;15.80;;;14.25;;
20417;SDS011;10368;51.436;6.774;2023-04-16T12:49:26;15.90;;;14.38;;
20417;SDS011;10368;51.436;6.774;2023-04-16T12:51:53;15.13;;;13.73;;
20417;SDS011;10368;51.436;6.774;2023-04-16T12:54:20;16.48;;;14.60;;
20417;SDS011;10368;51.436;6.774;2023-04-16T12:56:47;17.52;;;14.98;;
20417;SDS011;10368;51.436;6.774;2023-04-16T12:59:14;20.60;;;16.65;;
20417;SDS011;10368;51.436;6.774;2023-04-16T13:01:42;18.08;;;16.15;;
20417;SDS011;10368;51.436;6.774;2023-04-16T13:04:09;16.13;;;14.25;;
20417;SDS011;10368;51.436;6.774;2023-04-16T13:06:44;16.17;;;14.50;;
20417;SDS011;10368;51.436;6.774;2023-04-16T13:09:11;18.73;;;15.25;;
20417;SDS011;10368;51.436;6.774;2023-04-16T13:11:38;16.05;;;14.45;;
20417;SDS011;10368;51.436;6.774;2023-04-16T13:14:05;16.35;;;14.63;;
20417;SDS011;10368;51.436;6.774;2023-04-16T13:16:32;17.67;;;15.80;;
20417;SDS011;10368;51.436;6.774;2023-04-16T13:18:59;18.38;;;16.00;;
20417;SDS011;10368;51.436;6.774;2023-04-16T13:21:26;18.45;;;14.85;;
20417;SDS011;10368;51.436;6.774;2023-04-16T13:23:53;18.05;;;15.73;;
20417;SDS011;10368;51.436;6.774;2023-04-16T13:26:21;15.98;;;14.27;;
20417;SDS011;10368;51.436;6.774;2023-04-16T13:28:47;18.77;;;16.10;;
20417;SDS011;10368;51.436;6.774;2023-04-16T13:31:14;16.27;;;14.75;;
20417;SDS011;10368;51.436;6.774;2023-04-16T13:33:45;16.80;;;15.10;;
20417;SDS011;10368;51.436;6.774;2023-04-16T13:36:12;17.57;;;15.47;;
20417;SDS011;10368;51.436;6.774;2023-04-16T13:38:39;18.13;;;16.13;;
20417;SDS011;10368;51.436;6.774;2023-04-16T13:41:07;17.38;;;15.52;;
20417;SDS011;10368;51.436;6.774;2023-04-16T13:43:34;16.67;;;14.98;;
20417;SDS011;10368;51.436;6.774;2023-04-16T13:46:02;17.42;;;15.73;;
20417;SDS011;10368;51.436;6.774;2023-04-16T13:48:28;18.95;;;15.05;;
20417;SDS011;10368;51.436;6.774;2023-04-16T13:50:56;16.95;;;15.27;;
20417;SDS011;10368;51.436;6.774;2023-04-16T13:53:23;18.30;;;15.38;;
20417;SDS011;10368;51.436;6.774;2023-04-16T13:55:50;19.27;;;15.75;;
20417;SDS011;10368;51.436;6.774;2023-04-16T13:58:17;19.70;;;16.63;;
20417;SDS011;10368;51.436;6.774;2023-04-16T14:00:44;17.33;;;15.60;;
20417;SDS011;10368;51.436;6.774;2023-04-16T14:03:11;17.35;;;15.63;;
20417;SDS011;10368;51.436;6.774;2023-04-16T14:05:38;17.98;;;16.17;;
20417;SDS011;10368;51.436;6.774;2023-04-16T14:08:06;18.42;;;16.35;;
20417;SDS011;10368;51.436;6.774;2023-04-16T14:10:33;16.38;;;14.65;;
20417;SDS011;10368;51.436;6.774;2023-04-16T14:13:00;17.05;;;14.40;;
20417;SDS011;10368;51.436;6.774;2023-04-16T14:15:27;16.52;;;14.98;;
20417;SDS011;10368;51.436;6.774;2023-04-16T14:17:55;21.05;;;16.30;;
20417;SDS011;10368;51.436;6.774;2023-04-16T14:20:22;16.73;;;15.02;;
20417;SDS011;10368;51.436;6.774;2023-04-16T14:22:49;16.73;;;15.00;;
20417;SDS011;10368;51.436;6.774;2023-04-16T14:25:16;17.65;;;14.95;;
20417;SDS011;10368;51.436;6.774;2023-04-16T14:27:43;16.67;;;14.93;;
20417;SDS011;10368;51.436;6.774;2023-04-16T14:30:10;14.95;;;13.45;;
20417;SDS011;10368;51.436;6.774;2023-04-16T14:32:37;15.38;;;13.82;;
20417;SDS011;10368;51.436;6.774;2023-04-16T14:35:05;15.32;;;13.82;;
20417;SDS011;10368;51.436;6.774;2023-04-16T14:37:32;18.30;;;14.05;;
20417;SDS011;10368;51.436;6.774;2023-04-16T14:40:01;14.85;;;13.45;;
20417;SDS011;10368;51.436;6.774;2023-04-16T14:42:33;15.95;;;14.30;;
20417;SDS011;10368;51.436;6.774;2023-04-16T14:45:02;17.48;;;14.75;;